Weather reports worldwide

Advertisment
Lecaroz, Spain (8030): temperature & dewpoint: 10.09.2019 05:00:00 - 16.09.2019 05:00:00 (CEST)Lecaroz, Spain (8030): wind speed & gusts: 10.09.2019 05:00:00 - 16.09.2019 05:00:00 (CEST)Lecaroz, Spain (8030): wind direction: 10.09.2019 05:00:00 - 16.09.2019 05:00:00 (CEST)Lecaroz, Spain (8030): precipitation: 10.09.2019 05:00:00 - 16.09.2019 05:00:00 (CEST)
Date & Time tt [°C] td [°C] ff [km/h] ff [kn] fx [km/h] fx [kn] dd rr [mm]
16.09.2019 05:00:00 - - - - - - - -
16.09.2019 04:00:00 17,1 16,3 0 0 3 2 WSW 0,0
16.09.2019 03:00:00 17,2 16,4 0 0 4 2 E 0,0
16.09.2019 02:00:00 17,8 17,0 0 0 7 4 NNW -
16.09.2019 01:00:00 17,9 17,2 1 0 8 4 SSW 0,2
16.09.2019 00:00:00 17,8 17,0 0 0 6 3 S 0,1
15.09.2019 23:00:00 17,9 17,1 1 1 5 3 NE 0,0
15.09.2019 22:00:00 17,8 16,5 0 0 3 2 NW 0,0
15.09.2019 21:00:00 18,8 17,0 0 0 4 2 W 0,0
15.09.2019 20:00:00 20,4 17,4 0 0 5 3 WNW -
15.09.2019 19:00:00 21,5 17,7 1 1 17 9 W 0,3
15.09.2019 18:00:00 22,6 16,8 6 3 24 13 SSW 0,1
15.09.2019 17:00:00 26,2 15,3 3 2 13 7 WSW 0,0
15.09.2019 16:00:00 28,7 16,0 2 1 8 5 NW 0,0
15.09.2019 15:00:00 28,2 15,5 3 1 7 4 SSW 0,0
15.09.2019 14:00:00 26,3 15,1 1 0 6 3 NE -
15.09.2019 13:00:00 23,0 15,6 3 1 6 3 ENE 0,0
15.09.2019 12:00:00 19,9 16,9 1 0 7 4 NE 0,1
15.09.2019 11:00:00 17,4 16,4 2 1 12 7 SW 0,4
15.09.2019 10:00:00 15,8 15,2 2 1 5 3 SSW 0,0
15.09.2019 09:00:00 15,3 14,8 1 1 5 3 SSW 0,0
15.09.2019 08:00:00 14,6 14,1 2 1 5 3 SW -
15.09.2019 07:00:00 14,7 14,0 1 1 6 4 SSW 0,0
15.09.2019 06:00:00 14,7 14,0 0 0 7 4 S 0,0
15.09.2019 05:00:00 14,7 14,0 3 2 6 3 S 0,0
15.09.2019 04:00:00 14,8 14,0 2 1 4 2 SSW 0,0
15.09.2019 03:00:00 15,6 14,8 1 0 4 2 N 0,0
15.09.2019 02:00:00 16,5 15,7 0 0 6 4 SW -
15.09.2019 01:00:00 16,7 15,7 2 1 6 3 S 0,0
15.09.2019 00:00:00 17,1 15,8 2 1 5 3 SSW 0,0
14.09.2019 23:00:00 17,8 16,5 1 1 4 2 N 0,0
14.09.2019 22:00:00 19,0 16,8 1 1 5 3 SSW 0,0
14.09.2019 21:00:00 21,5 17,7 1 0 5 3 WSW 0,0
14.09.2019 20:00:00 23,6 18,0 3 2 6 3 SW -
14.09.2019 19:00:00 24,9 18,1 1 1 8 5 SW 0,0
14.09.2019 18:00:00 27,0 15,1 4 2 21 12 NE 0,0
14.09.2019 17:00:00 28,3 14,9 6 3 16 8 NE 0,0
14.09.2019 16:00:00 29,1 15,3 5 3 16 9 NE 0,0
14.09.2019 15:00:00 29,5 15,3 3 2 8 4 SSW 0,0
14.09.2019 14:00:00 27,4 15,1 3 1 7 4 SW -
14.09.2019 13:00:00 25,4 14,8 1 0 5 3 SE 0,0
14.09.2019 12:00:00 22,9 14,4 1 0 4 2 S 0,0
14.09.2019 11:00:00 18,6 15,3 2 1 5 3 NE 0,0
14.09.2019 10:00:00 15,9 15,4 2 1 5 3 S 0,0
14.09.2019 09:00:00 15,3 14,8 1 0 5 3 E 0,0
14.09.2019 08:00:00 14,5 13,9 0 0 5 3 W -
14.09.2019 07:00:00 14,6 13,9 2 1 5 3 SSW 0,0
14.09.2019 06:00:00 15,7 15,1 0 0 5 3 W 0,0
14.09.2019 05:00:00 15,7 15,1 1 1 6 3 SSW 0,0
14.09.2019 04:00:00 15,7 15,1 1 0 6 4 WNW 0,0
14.09.2019 03:00:00 15,4 14,8 1 0 4 2 WSW 0,0
14.09.2019 02:00:00 15,8 15,0 2 1 4 2 NW -
14.09.2019 01:00:00 15,6 14,8 0 0 4 2 S 0,0
14.09.2019 00:00:00 15,2 14,2 0 0 3 2 S 0,0
13.09.2019 23:00:00 16,0 14,7 0 0 3 1 NW 0,0
13.09.2019 22:00:00 17,3 15,4 0 0 4 2 WSW 0,0
13.09.2019 21:00:00 19,1 16,5 0 0 7 4 S 0,0
13.09.2019 20:00:00 21,8 17,4 0 0 4 2 SSW -
13.09.2019 19:00:00 23,7 16,5 1 0 8 5 WNW 0,0
13.09.2019 18:00:00 25,3 14,1 4 2 11 6 NNE 0,0
13.09.2019 17:00:00 26,1 13,3 3 2 18 10 ENE 0,0
13.09.2019 16:00:00 26,2 13,0 6 4 18 10 ENE 0,0
13.09.2019 15:00:00 26,5 11,8 7 4 17 9 NE 0,0
13.09.2019 14:00:00 24,9 13,5 2 1 8 4 NNW -
13.09.2019 13:00:00 21,4 14,0 2 1 7 4 NNE 0,0
13.09.2019 12:00:00 17,8 13,9 2 1 6 3 NNW 0,0
13.09.2019 11:00:00 14,3 13,2 1 1 5 3 ENE 0,0
13.09.2019 10:00:00 13,0 12,5 0 0 5 3 SSE 0,0
13.09.2019 09:00:00 12,7 12,2 0 0 3 2 N 0,0
13.09.2019 08:00:00 12,4 11,9 0 0 7 4 WNW -
13.09.2019 07:00:00 12,6 12,1 2 1 5 3 SSW 0,0
13.09.2019 06:00:00 12,5 12,0 1 1 4 2 SW 0,0
13.09.2019 05:00:00 12,8 12,3 0 0 3 2 NE 0,0
13.09.2019 04:00:00 12,7 12,2 0 0 3 2 SSW 0,0
13.09.2019 03:00:00 12,4 11,9 0 0 0 0 NW 0,0
13.09.2019 02:00:00 11,5 10,8 0 0 1 0 WNW -
13.09.2019 01:00:00 12,0 10,9 0 0 0 0 WNW 0,0
13.09.2019 00:00:00 13,0 11,9 0 0 0 0 N 0,0
12.09.2019 23:00:00 13,7 12,4 0 0 2 1 NW 0,0
12.09.2019 22:00:00 15,1 13,2 0 0 5 3 WSW 0,0
12.09.2019 21:00:00 17,0 13,6 2 1 6 3 SSW 0,0
12.09.2019 20:00:00 20,4 13,4 3 1 10 5 ENE -
12.09.2019 19:00:00 23,3 11,3 5 3 17 9 NNE 0,0
12.09.2019 18:00:00 23,8 10,8 10 5 22 12 NE 0,0
12.09.2019 17:00:00 24,2 10,9 9 5 20 11 NE 0,0
12.09.2019 16:00:00 24,8 11,3 6 4 21 11 ENE 0,0
12.09.2019 15:00:00 24,5 10,4 7 4 24 13 ENE 0,0
12.09.2019 14:00:00 23,1 11,2 3 1 9 5 NNW -
12.09.2019 13:00:00 20,9 12,5 1 1 8 5 W 0,0
12.09.2019 12:00:00 17,0 12,1 3 1 6 3 ENE 0,0
12.09.2019 11:00:00 12,2 11,2 1 1 5 3 ESE 0,0
12.09.2019 10:00:00 10,4 10,0 1 1 4 2 WNW 0,0
12.09.2019 09:00:00 9,7 9,4 2 1 4 2 N 0,0
12.09.2019 08:00:00 9,5 9,2 0 0 4 2 NW -
12.09.2019 07:00:00 9,3 9,0 0 0 3 2 WNW 0,0
12.09.2019 06:00:00 8,9 8,4 0 0 4 2 NW 0,0
12.09.2019 05:00:00 8,8 8,4 1 0 4 2 NNW 0,0
12.09.2019 04:00:00 9,2 8,7 1 1 4 2 NNW 0,0
12.09.2019 03:00:00 9,6 9,0 1 0 4 2 NNW 0,0
12.09.2019 02:00:00 10,0 9,2 1 1 3 2 SSW -
12.09.2019 01:00:00 10,6 9,8 0 0 2 1 SSW 0,0
12.09.2019 00:00:00 11,4 10,3 0 0 3 2 WNW 0,0
11.09.2019 23:00:00 12,4 11,3 1 0 5 3 NW 0,0
11.09.2019 22:00:00 13,2 11,1 1 0 8 4 S 0,0
11.09.2019 21:00:00 14,6 11,0 4 2 10 5 SSW 0,0
11.09.2019 20:00:00 17,8 8,9 5 3 24 13 NE -
11.09.2019 19:00:00 19,0 9,2 9 5 24 13 NNE 0,0
11.09.2019 18:00:00 20,0 8,7 9 5 32 17 N 0,0
11.09.2019 17:00:00 21,1 8,0 16 9 34 18 N 0,0
11.09.2019 16:00:00 22,0 8,1 10 5 24 13 N 0,0
11.09.2019 15:00:00 21,9 8,0 14 8 30 16 N 0,0
11.09.2019 14:00:00 21,5 7,7 11 6 22 12 N -
11.09.2019 13:00:00 20,8 8,4 10 5 23 13 N 0,0
11.09.2019 12:00:00 19,1 8,1 9 5 21 11 N 0,0
11.09.2019 11:00:00 17,7 11,0 4 2 10 6 ENE 0,0
11.09.2019 10:00:00 15,3 13,0 1 0 4 2 ESE 0,0
11.09.2019 09:00:00 13,8 13,1 0 0 3 2 ESE 0,0
11.09.2019 08:00:00 13,4 12,7 1 1 4 2 ENE -
11.09.2019 07:00:00 14,0 13,3 0 0 6 4 SSW 0,0
11.09.2019 06:00:00 14,1 13,4 0 0 6 3 SSE 0,0
11.09.2019 05:00:00 13,8 13,1 2 1 8 4 SSW 0,0
11.09.2019 04:00:00 14,1 13,0 3 2 6 3 S 0,0
11.09.2019 03:00:00 14,6 13,0 1 0 8 4 E 0,0
11.09.2019 02:00:00 14,9 12,7 1 0 14 8 S -
11.09.2019 01:00:00 15,8 11,8 5 3 20 11 ENE 0,0
11.09.2019 00:00:00 15,9 11,4 7 4 23 12 NNE 0,0
10.09.2019 23:00:00 15,9 12,2 5 3 19 10 N 0,0
10.09.2019 22:00:00 15,4 12,1 6 3 19 10 N 0,0
10.09.2019 21:00:00 14,5 12,3 2 1 14 8 N 0,0
10.09.2019 20:00:00 14,9 12,7 3 2 16 9 N -
10.09.2019 19:00:00 14,6 13,4 2 1 17 9 N 1,2
10.09.2019 18:00:00 14,8 13,1 3 2 10 5 S 2,6
10.09.2019 17:00:00 15,1 11,4 4 2 22 12 NE 1,3
10.09.2019 16:00:00 - - - - - - - -
10.09.2019 15:00:00 16,4 11,8 3 1 9 5 S 1,3
10.09.2019 14:00:00 15,9 11,7 3 2 8 5 NE -
10.09.2019 13:00:00 13,4 11,7 2 1 7 4 NE 2,7
10.09.2019 12:00:00 12,8 11,3 3 1 - - NNW -
10.09.2019 11:00:00 - - - - - - - -
10.09.2019 10:00:00 - - - - - - - -
10.09.2019 09:00:00 - - - - - - - -
10.09.2019 08:00:00 - - - - - - - -
10.09.2019 07:00:00 - - - - - - - -
10.09.2019 06:00:00 - - - - - - - -
10.09.2019 05:00:00 - - - - - - - -

tt = temperature
td = dewpoint
ff = wind speed
fx = gusts
dd = wind direction
rr = precipitation

Next stations